createdAt,value
2022-08-03T00:00:51.745Z,3.08
2022-08-03T00:01:53.251Z,2.70
2022-08-03T00:02:54.758Z,2.63
2022-08-03T00:03:56.254Z,2.90
2022-08-03T00:04:57.748Z,2.60
2022-08-03T00:06:04.052Z,2.55
2022-08-03T00:07:06.545Z,2.63
2022-08-03T00:08:07.966Z,2.60
2022-08-03T00:09:10.814Z,2.50
2022-08-03T00:10:13.415Z,2.85
2022-08-03T00:11:16.222Z,2.70
2022-08-03T00:12:18.076Z,2.40
2022-08-03T00:13:19.842Z,2.50
2022-08-03T00:14:21.283Z,2.63
2022-08-03T00:15:22.936Z,2.70
2022-08-03T00:16:24.551Z,2.90
2022-08-03T00:17:26.015Z,2.70
2022-08-03T00:18:27.516Z,2.80
2022-08-03T00:19:29.002Z,2.70
2022-08-03T00:20:30.436Z,2.83
2022-08-03T00:21:31.964Z,2.45
2022-08-03T00:22:35.044Z,2.67
2022-08-03T00:23:52.486Z,2.60
2022-08-03T00:24:54.271Z,2.60
2022-08-03T00:25:55.822Z,2.72
2022-08-03T00:26:58.603Z,2.42
2022-08-03T00:28:00.101Z,2.67
2022-08-03T00:29:01.532Z,3.08
2022-08-03T00:30:03.849Z,2.97
2022-08-03T00:31:05.274Z,2.88
2022-08-03T00:32:08.691Z,2.40
2022-08-03T00:33:13.520Z,2.60
2022-08-03T00:34:16.055Z,2.55
2022-08-03T00:35:27.345Z,2.67
2022-08-03T00:36:38.078Z,2.50
2022-08-03T00:37:41.681Z,2.58
2022-08-03T00:38:43.338Z,2.70
2022-08-03T00:39:44.777Z,2.40
2022-08-03T00:40:46.347Z,2.50
2022-08-03T00:41:47.772Z,2.45
2022-08-03T00:42:53.807Z,2.40
2022-08-03T00:43:55.250Z,2.65
2022-08-03T00:44:56.711Z,2.53
2022-08-03T00:45:58.164Z,2.47
2022-08-03T00:46:59.623Z,2.80
2022-08-03T00:48:02.444Z,2.78
2022-08-03T00:49:04.022Z,2.75
2022-08-03T00:50:06.453Z,2.72
2022-08-03T00:51:08.140Z,2.70
2022-08-03T00:52:11.203Z,2.85
2022-08-03T00:53:12.793Z,2.50
2022-08-03T00:54:14.949Z,2.70
2022-08-03T00:55:16.958Z,2.90
2022-08-03T00:56:18.661Z,2.50
2022-08-03T00:57:20.827Z,2.45
2022-08-03T00:58:23.947Z,2.70
2022-08-03T00:59:25.380Z,2.60
2022-08-03T01:00:27.758Z,2.50
2022-08-03T01:01:32.318Z,2.60
2022-08-03T01:02:34.273Z,2.20
2022-08-03T01:03:35.751Z,2.50
2022-08-03T01:04:37.188Z,2.33
2022-08-03T01:05:55.788Z,2.50
2022-08-03T01:07:03.502Z,2.45
2022-08-03T01:08:12.069Z,2.50
2022-08-03T01:09:22.126Z,2.35
2022-08-03T01:10:28.808Z,2.53
2022-08-03T01:11:59.719Z,2.47
2022-08-03T01:13:59.203Z,2.90
2022-08-03T01:14:38.480Z,2.60
2022-08-03T01:15:46.262Z,2.55
2022-08-03T01:16:55.998Z,2.40
2022-08-03T01:18:02.947Z,2.90
2022-08-03T01:19:24.183Z,2.30
2022-08-03T01:20:29.630Z,2.55
2022-08-03T01:21:33.996Z,2.60
2022-08-03T01:23:23.610Z,2.70
2022-08-03T01:24:37.710Z,2.60
2022-08-03T01:25:59.672Z,2.70
2022-08-03T01:27:08.621Z,2.70
2022-08-03T01:28:25.336Z,2.83
2022-08-03T01:29:46.416Z,2.63
2022-08-03T01:30:49.797Z,2.70
2022-08-03T01:32:58.715Z,2.78
2022-08-03T01:33:22.783Z,2.45
2022-08-03T01:34:28.138Z,2.78
2022-08-03T01:35:38.459Z,2.33
2022-08-03T01:36:44.669Z,2.42
2022-08-03T01:37:52.024Z,2.53
2022-08-03T01:38:56.061Z,2.45
2022-08-03T01:40:01.006Z,2.72
2022-08-03T01:41:05.853Z,2.80
2022-08-03T01:42:10.197Z,2.65
2022-08-03T01:44:26.218Z,2.75
2022-08-03T01:44:42.392Z,2.80
2022-08-03T01:45:44.613Z,2.67
2022-08-03T01:46:48.855Z,2.85
2022-08-03T01:47:52.732Z,2.63
2022-08-03T01:48:56.244Z,2.90
2022-08-03T01:50:00.528Z,2.13
2022-08-03T01:51:02.665Z,2.42
2022-08-03T01:52:05.633Z,2.35
2022-08-03T01:53:08.912Z,2.60
2022-08-03T01:54:12.570Z,2.40
2022-08-03T01:55:19.061Z,2.22
2022-08-03T01:56:24.225Z,2.60
2022-08-03T01:57:28.731Z,2.55
2022-08-03T01:58:32.165Z,2.67
2022-08-03T01:59:35.457Z,2.90
2022-08-03T02:00:40.213Z,3.13
2022-08-03T02:02:19.566Z,2.88
2022-08-03T02:03:06.978Z,2.97
2022-08-03T02:04:09.684Z,2.70
2022-08-03T02:05:12.618Z,2.60
2022-08-03T02:07:01.334Z,2.72
2022-08-03T02:07:40.457Z,2.78
2022-08-03T02:08:44.688Z,3.10
2022-08-03T02:09:51.504Z,3.40
2022-08-03T02:10:57.008Z,2.50
2022-08-03T02:11:59.136Z,3.22
2022-08-03T02:13:01.919Z,2.83
2022-08-03T02:14:05.830Z,2.85
2022-08-03T02:15:09.591Z,3.00
2022-08-03T02:16:14.151Z,2.75
2022-08-03T02:17:16.373Z,2.72
2022-08-03T02:18:20.079Z,2.67
2022-08-03T02:19:24.817Z,3.10
2022-08-03T02:20:28.379Z,2.97
2022-08-03T02:21:57.042Z,2.70
2022-08-03T02:22:55.131Z,2.60
2022-08-03T02:23:56.675Z,2.97
2022-08-03T02:24:58.132Z,2.70
2022-08-03T02:26:04.557Z,2.70
2022-08-03T02:27:13.673Z,2.50
2022-08-03T02:28:18.121Z,2.85
2022-08-03T02:29:39.492Z,2.50
2022-08-03T02:30:45.831Z,2.40
2022-08-03T02:31:58.152Z,2.83
2022-08-03T02:33:01.617Z,2.88
2022-08-03T02:34:08.287Z,2.63
2022-08-03T02:35:13.016Z,2.70
2022-08-03T02:36:15.949Z,2.70
2022-08-03T02:37:19.194Z,2.55
2022-08-03T02:38:25.998Z,2.40
2022-08-03T02:39:31.180Z,2.33
2022-08-03T02:40:33.655Z,2.53
2022-08-03T02:41:37.985Z,2.70
2022-08-03T02:42:44.276Z,2.90
2022-08-03T02:44:06.044Z,2.88
2022-08-03T02:45:11.688Z,2.45
2022-08-03T02:46:17.206Z,2.50
2022-08-03T02:47:20.692Z,2.72
2022-08-03T02:48:26.503Z,2.92
2022-08-03T02:49:42.153Z,2.72
2022-08-03T02:50:54.024Z,2.70
2022-08-03T02:51:57.696Z,2.65
2022-08-03T02:53:01.208Z,2.90
2022-08-03T02:54:04.837Z,2.90
2022-08-03T02:55:10.159Z,2.53
2022-08-03T02:56:12.630Z,2.60
2022-08-03T02:57:15.136Z,2.55
2022-08-03T02:58:19.387Z,2.78
2022-08-03T02:59:22.283Z,2.70
2022-08-03T03:00:27.344Z,2.67
2022-08-03T03:01:31.465Z,2.42
2022-08-03T03:02:34.864Z,2.60
2022-08-03T03:03:44.829Z,2.47
2022-08-03T03:05:51.831Z,2.47
2022-08-03T03:06:13.337Z,2.75
2022-08-03T03:07:17.585Z,2.50
2022-08-03T03:08:26.770Z,2.67
2022-08-03T03:09:40.233Z,2.72
2022-08-03T03:10:44.288Z,2.35
2022-08-03T03:11:46.278Z,2.22
2022-08-03T03:12:50.142Z,2.58
2022-08-03T03:13:52.746Z,2.47
2022-08-03T03:14:54.229Z,2.60
2022-08-03T03:15:57.212Z,2.67
2022-08-03T03:16:59.808Z,3.05
2022-08-03T03:18:03.149Z,2.70
2022-08-03T03:19:05.316Z,2.50
2022-08-03T03:20:08.752Z,2.50
2022-08-03T03:21:10.725Z,2.78
2022-08-03T03:22:13.076Z,2.75
2022-08-03T03:23:15.318Z,2.20
2022-08-03T03:24:17.282Z,2.42
2022-08-03T03:25:20.097Z,3.05
2022-08-03T03:26:21.800Z,2.47
2022-08-03T03:27:23.445Z,2.80
2022-08-03T03:28:25.394Z,2.60
2022-08-03T03:29:27.765Z,2.42
2022-08-03T03:30:29.882Z,2.30
2022-08-03T03:31:31.863Z,2.40
2022-08-03T03:32:33.578Z,2.42
2022-08-03T03:33:37.824Z,2.70
2022-08-03T03:34:39.584Z,2.90
2022-08-03T03:35:42.551Z,2.60
2022-08-03T03:36:44.029Z,2.50
2022-08-03T03:37:45.548Z,2.40
2022-08-03T03:38:47.040Z,2.40
2022-08-03T03:39:48.513Z,2.63
2022-08-03T03:40:50.125Z,2.58
2022-08-03T03:41:52.012Z,2.40
2022-08-03T03:42:53.588Z,2.80
2022-08-03T03:43:55.519Z,2.30
2022-08-03T03:44:57.046Z,2.30
2022-08-03T03:46:01.779Z,2.70
2022-08-03T03:47:03.477Z,3.60
2022-08-03T03:48:05.977Z,2.70
2022-08-03T03:49:09.124Z,2.65
2022-08-03T03:50:10.636Z,2.20
2022-08-03T03:51:12.717Z,2.88
2022-08-03T03:52:16.806Z,2.55
2022-08-03T03:53:18.515Z,2.58
2022-08-03T03:54:20.022Z,2.70
2022-08-03T03:55:21.492Z,2.90
2022-08-03T03:56:23.335Z,2.50
2022-08-03T03:57:24.862Z,2.40
2022-08-03T03:58:26.357Z,2.40
2022-08-03T03:59:27.855Z,2.70
2022-08-03T04:00:29.732Z,2.40
2022-08-03T04:01:31.614Z,2.58
2022-08-03T04:02:33.325Z,2.70
2022-08-03T04:03:35.741Z,2.42
2022-08-03T04:04:39.076Z,2.72
2022-08-03T04:05:44.241Z,2.55
2022-08-03T04:06:47.829Z,2.47
2022-08-03T04:08:00.820Z,2.40
2022-08-03T04:09:03.214Z,2.55
2022-08-03T04:10:14.399Z,2.50
2022-08-03T04:11:20.250Z,2.83
2022-08-03T04:12:32.331Z,2.63
2022-08-03T04:13:37.685Z,2.67
2022-08-03T04:14:40.389Z,2.40
2022-08-03T04:15:42.758Z,2.92
2022-08-03T04:16:48.981Z,2.92
2022-08-03T04:17:53.098Z,3.05
2022-08-03T04:19:00.593Z,2.75
2022-08-03T04:20:04.751Z,2.80
2022-08-03T04:21:11.154Z,2.50
2022-08-03T04:22:17.745Z,2.53
2022-08-03T04:23:22.189Z,2.45
2022-08-03T04:24:26.559Z,2.28
2022-08-03T04:25:32.217Z,2.55
2022-08-03T04:26:36.319Z,2.67
2022-08-03T04:27:41.428Z,2.60
2022-08-03T04:28:44.732Z,2.67
2022-08-03T04:29:49.246Z,2.40
2022-08-03T04:30:53.582Z,2.60
2022-08-03T04:31:59.370Z,2.28
2022-08-03T04:33:02.307Z,2.30
2022-08-03T04:34:04.690Z,2.67
2022-08-03T04:35:08.631Z,2.30
2022-08-03T04:36:14.847Z,2.53
2022-08-03T04:37:26.135Z,2.50
2022-08-03T04:39:32.631Z,2.05
2022-08-03T04:40:36.244Z,2.40
2022-08-03T04:42:07.284Z,2.40
2022-08-03T04:43:02.616Z,2.45
2022-08-03T04:44:05.694Z,2.63
2022-08-03T04:45:11.492Z,2.47
2022-08-03T04:46:14.028Z,2.63
2022-08-03T04:47:16.315Z,2.58
2022-08-03T04:48:19.808Z,2.70
2022-08-03T04:49:21.776Z,2.35
2022-08-03T04:50:25.302Z,2.50
2022-08-03T04:51:27.626Z,2.92
2022-08-03T04:52:29.353Z,2.40
2022-08-03T04:53:30.888Z,2.42
2022-08-03T04:54:39.512Z,2.50
2022-08-03T04:55:40.938Z,2.80
2022-08-03T04:56:42.710Z,2.53
2022-08-03T04:57:44.146Z,2.90
2022-08-03T04:58:45.623Z,2.67
2022-08-03T04:59:47.091Z,2.50
2022-08-03T05:00:48.532Z,2.50
2022-08-03T05:01:50.943Z,2.60
2022-08-03T05:02:52.956Z,2.70
2022-08-03T05:03:54.442Z,2.80
2022-08-03T05:04:55.893Z,2.88
2022-08-03T05:06:09.801Z,2.88
2022-08-03T05:07:13.197Z,2.80
2022-08-03T05:08:14.703Z,2.50
2022-08-03T05:09:16.182Z,2.40
2022-08-03T05:10:37.657Z,2.55
2022-08-03T05:11:39.094Z,2.92
2022-08-03T05:12:40.715Z,2.80
2022-08-03T05:13:42.195Z,2.63
2022-08-03T05:14:43.637Z,2.40
2022-08-03T05:15:45.138Z,2.83
2022-08-03T05:16:46.601Z,2.50
2022-08-03T05:17:48.074Z,2.78
2022-08-03T05:18:49.590Z,2.70
2022-08-03T05:19:51.046Z,2.67
2022-08-03T05:20:52.480Z,2.72
2022-08-03T05:21:55.273Z,2.90
2022-08-03T05:22:56.854Z,2.88
2022-08-03T05:23:58.326Z,3.03
2022-08-03T05:25:01.122Z,2.58
2022-08-03T05:26:02.607Z,2.70
2022-08-03T05:27:04.134Z,2.60
2022-08-03T05:28:05.609Z,2.60
2022-08-03T05:29:07.073Z,2.95
2022-08-03T05:30:30.410Z,2.38
2022-08-03T05:31:31.035Z,3.03
2022-08-03T05:32:32.478Z,2.88
2022-08-03T05:33:33.952Z,2.60
2022-08-03T05:34:35.431Z,2.38
2022-08-03T05:35:55.881Z,2.53
2022-08-03T05:37:00.324Z,2.83
2022-08-03T05:38:02.218Z,2.70
2022-08-03T05:39:03.829Z,2.58
2022-08-03T05:40:06.531Z,2.85
2022-08-03T05:41:21.124Z,2.58
2022-08-03T05:42:24.572Z,2.65
2022-08-03T05:43:26.008Z,2.47
2022-08-03T05:44:27.842Z,2.63
2022-08-03T05:45:29.312Z,2.30
2022-08-03T05:46:30.819Z,2.25
2022-08-03T05:47:32.267Z,2.28
2022-08-03T05:48:33.817Z,2.38
2022-08-03T05:49:35.442Z,2.55
2022-08-03T05:50:41.097Z,2.35
2022-08-03T05:51:44.283Z,2.30
2022-08-03T05:52:47.561Z,2.10
2022-08-03T05:53:49.610Z,1.90
2022-08-03T05:54:56.356Z,2.30
2022-08-03T05:56:03.503Z,2.38
2022-08-03T05:57:16.255Z,2.15
2022-08-03T05:58:18.004Z,2.30
2022-08-03T05:59:37.532Z,2.53
2022-08-03T06:00:39.820Z,2.40
2022-08-03T06:01:41.359Z,2.35
2022-08-03T06:02:42.904Z,2.30
2022-08-03T06:03:44.884Z,2.60
2022-08-03T06:04:46.339Z,2.72
2022-08-03T06:05:59.943Z,2.45
2022-08-03T06:07:01.668Z,2.60
2022-08-03T06:08:05.150Z,2.30
2022-08-03T06:09:06.623Z,2.25
2022-08-03T06:10:34.492Z,2.50
2022-08-03T06:11:30.276Z,2.10
2022-08-03T06:12:31.810Z,2.17
2022-08-03T06:13:33.365Z,2.20
2022-08-03T06:14:34.810Z,2.30
2022-08-03T06:15:36.251Z,2.20
2022-08-03T06:16:37.720Z,2.17
2022-08-03T06:17:46.078Z,1.98
2022-08-03T06:18:47.528Z,2.10
2022-08-03T06:19:51.434Z,2.15
2022-08-03T06:20:53.982Z,1.88
2022-08-03T06:21:56.605Z,1.95
2022-08-03T06:23:00.308Z,1.80
2022-08-03T06:24:04.383Z,2.22
2022-08-03T06:25:12.848Z,2.00
2022-08-03T06:26:14.529Z,1.92
2022-08-03T06:27:16.500Z,2.00
2022-08-03T06:28:52.297Z,1.95
2022-08-03T06:29:39.439Z,2.03
2022-08-03T06:30:41.174Z,2.10
2022-08-03T06:31:42.648Z,1.83
2022-08-03T06:32:44.367Z,1.88
2022-08-03T06:34:32.990Z,1.95
2022-08-03T06:35:15.150Z,1.90
2022-08-03T06:36:16.658Z,1.70
2022-08-03T06:37:18.102Z,1.90
2022-08-03T06:38:19.549Z,1.90
2022-08-03T06:39:23.476Z,1.90
2022-08-03T06:40:25.456Z,3.78
2022-08-03T06:41:27.491Z,1.70
2022-08-03T06:42:28.958Z,1.73
2022-08-03T06:43:30.398Z,2.00
2022-08-03T06:44:37.397Z,4.60
2022-08-03T06:45:38.845Z,1.50
2022-08-03T06:46:40.416Z,1.40
2022-08-03T06:47:41.873Z,1.23
2022-08-03T06:48:46.360Z,1.40
2022-08-03T06:50:16.233Z,1.30
2022-08-03T06:52:10.565Z,1.20
2022-08-03T06:53:21.203Z,1.20
2022-08-03T06:54:24.326Z,1.20
2022-08-03T06:55:25.853Z,1.40
2022-08-03T06:56:27.279Z,1.30
2022-08-03T06:57:28.755Z,1.30
2022-08-03T06:58:30.214Z,1.10
2022-08-03T07:00:09.354Z,1.30
2022-08-03T07:00:53.372Z,1.20
2022-08-03T07:01:54.862Z,1.30
2022-08-03T07:02:58.405Z,1.30
2022-08-03T07:04:00.147Z,1.70
2022-08-03T07:05:01.598Z,1.50
2022-08-03T07:06:03.487Z,1.20
2022-08-03T07:07:05.018Z,1.05
2022-08-03T07:08:06.505Z,1.40
2022-08-03T07:09:07.943Z,1.20
2022-08-03T07:10:10.861Z,1.38
2022-08-03T07:11:12.313Z,1.33
2022-08-03T07:12:13.813Z,1.20
2022-08-03T07:13:15.272Z,1.40
2022-08-03T07:14:16.761Z,1.38
2022-08-03T07:15:20.175Z,1.20
2022-08-03T07:16:21.789Z,1.33
2022-08-03T07:17:23.243Z,1.40
2022-08-03T07:18:29.621Z,1.50
2022-08-03T07:19:31.482Z,1.38
2022-08-03T07:20:33.214Z,1.48
2022-08-03T07:21:34.671Z,1.30
2022-08-03T07:22:36.129Z,1.60
2022-08-03T07:23:37.581Z,1.30
2022-08-03T07:24:39.043Z,1.30
2022-08-03T07:25:41.842Z,1.30
2022-08-03T07:26:43.310Z,1.27
2022-08-03T07:27:51.679Z,1.40
2022-08-03T07:28:53.322Z,1.13
2022-08-03T07:29:54.829Z,1.20
2022-08-03T07:30:56.346Z,1.15
2022-08-03T07:31:58.063Z,1.30
2022-08-03T07:32:59.599Z,1.10
2022-08-03T07:34:01.078Z,1.70
2022-08-03T07:35:03.047Z,1.20
2022-08-03T07:36:10.331Z,1.33
2022-08-03T07:37:11.799Z,1.10
2022-08-03T07:38:13.240Z,1.27
2022-08-03T07:39:17.880Z,1.35
2022-08-03T07:40:19.692Z,1.20
2022-08-03T07:41:22.469Z,1.27
2022-08-03T07:42:23.914Z,1.38
2022-08-03T07:43:25.393Z,1.20
2022-08-03T07:44:26.852Z,1.13
2022-08-03T07:45:29.529Z,1.25
2022-08-03T07:46:30.985Z,1.20
2022-08-03T07:47:35.530Z,1.10
2022-08-03T07:48:37.522Z,1.10
2022-08-03T07:49:40.422Z,1.08
2022-08-03T07:50:41.920Z,1.10
2022-08-03T07:51:43.422Z,1.33
2022-08-03T07:52:44.947Z,1.20
2022-08-03T07:53:48.028Z,1.15
2022-08-03T07:54:49.835Z,1.30
2022-08-03T07:55:51.345Z,1.52
2022-08-03T07:56:54.131Z,1.23
2022-08-03T07:58:03.638Z,1.20
2022-08-03T07:59:05.109Z,1.08
2022-08-03T08:00:14.132Z,1.17
2022-08-03T08:01:15.596Z,1.20
2022-08-03T08:02:17.351Z,1.10
2022-08-03T08:03:19.297Z,1.23
2022-08-03T08:04:20.734Z,1.35
2022-08-03T08:05:22.179Z,1.00
2022-08-03T08:06:23.630Z,1.13
2022-08-03T08:07:25.109Z,1.02
2022-08-03T08:08:26.758Z,1.20
2022-08-03T08:09:28.261Z,1.17
2022-08-03T08:10:31.175Z,1.13
2022-08-03T08:11:34.860Z,3.85
2022-08-03T08:12:41.587Z,14.00
2022-08-03T08:13:43.049Z,1.20
2022-08-03T08:14:44.499Z,1.20
2022-08-03T08:15:45.962Z,1.00
2022-08-03T08:16:48.742Z,1.05
2022-08-03T08:17:52.205Z,1.20
2022-08-03T08:18:53.699Z,1.20
2022-08-03T08:19:55.146Z,1.05
2022-08-03T08:20:56.741Z,1.20
2022-08-03T08:22:02.418Z,1.23
2022-08-03T08:23:32.591Z,1.23
2022-08-03T08:24:27.792Z,1.30
2022-08-03T08:25:30.414Z,1.10
2022-08-03T08:26:31.895Z,1.17
2022-08-03T08:28:30.890Z,1.30
2022-08-03T08:30:00.610Z,1.35
2022-08-03T08:31:06.312Z,1.20
2022-08-03T08:32:07.757Z,1.20
2022-08-03T08:33:15.722Z,1.23
2022-08-03T08:34:25.095Z,1.40
2022-08-03T08:35:26.541Z,1.20
2022-08-03T08:36:28.057Z,1.20
2022-08-03T08:37:29.492Z,1.40
2022-08-03T08:38:30.925Z,1.40
2022-08-03T08:39:32.361Z,1.30
2022-08-03T08:40:34.018Z,1.10
2022-08-03T08:41:35.514Z,1.05
2022-08-03T08:42:37.544Z,1.20
2022-08-03T08:43:39.029Z,1.10
2022-08-03T08:44:41.842Z,1.08
2022-08-03T08:45:44.826Z,0.90
2022-08-03T08:46:47.506Z,0.90
2022-08-03T08:47:51.766Z,1.20
2022-08-03T08:48:54.857Z,1.13
2022-08-03T08:50:09.801Z,1.08
2022-08-03T08:51:12.741Z,0.90
2022-08-03T08:52:25.153Z,1.10
2022-08-03T08:53:35.667Z,0.90
2022-08-03T08:54:39.437Z,1.05
2022-08-03T08:55:58.545Z,1.00
2022-08-03T08:57:06.665Z,1.00
2022-08-03T08:58:21.469Z,1.15
2022-08-03T08:59:24.038Z,1.00
2022-08-03T09:00:26.804Z,1.10
2022-08-03T09:01:28.635Z,1.10
2022-08-03T09:02:30.945Z,1.00
2022-08-03T09:03:33.019Z,1.17
2022-08-03T09:04:34.653Z,1.00
2022-08-03T09:05:55.311Z,1.25
2022-08-03T09:07:17.987Z,1.20
2022-08-03T09:08:19.193Z,1.40
2022-08-03T09:10:00.367Z,1.20
2022-08-03T09:13:05.014Z,1.23
2022-08-03T09:14:07.032Z,1.20
2022-08-03T09:15:21.485Z,1.38
2022-08-03T09:16:24.224Z,1.17
2022-08-03T09:17:39.310Z,1.70
2022-08-03T09:18:42.245Z,1.33
2022-08-03T09:20:03.970Z,1.63
2022-08-03T09:21:33.884Z,1.40
2022-08-03T09:22:36.137Z,1.10
2022-08-03T09:24:01.475Z,1.10
2022-08-03T09:26:29.250Z,1.05
2022-08-03T09:27:42.106Z,1.10
2022-08-03T09:28:58.111Z,1.02
2022-08-03T09:30:01.937Z,1.20
2022-08-03T09:31:03.397Z,1.25
2022-08-03T09:32:06.514Z,1.10
2022-08-03T09:33:09.614Z,1.10
2022-08-03T09:34:12.973Z,0.82
2022-08-03T09:35:14.765Z,1.25
2022-08-03T09:36:36.311Z,1.27
2022-08-03T09:38:12.787Z,1.50
2022-08-03T09:40:02.681Z,1.13
2022-08-03T09:41:17.703Z,1.00
2022-08-03T09:42:23.752Z,1.10
2022-08-03T09:43:25.642Z,1.08
2022-08-03T09:44:34.045Z,0.95
2022-08-03T09:45:36.257Z,1.10
2022-08-03T09:46:51.099Z,1.08
2022-08-03T09:47:53.993Z,1.10
2022-08-03T09:49:11.473Z,1.27
2022-08-03T09:50:13.590Z,1.10
2022-08-03T09:52:30.226Z,1.20
2022-08-03T09:52:50.210Z,1.10
2022-08-03T09:53:57.231Z,1.08
2022-08-03T09:55:01.952Z,0.93
2022-08-03T09:56:35.118Z,1.20
2022-08-03T09:57:27.341Z,1.05
2022-08-03T09:58:30.313Z,1.25
2022-08-03T09:59:33.537Z,0.93
2022-08-03T10:00:53.017Z,1.15
2022-08-03T10:01:55.714Z,1.10
2022-08-03T10:03:04.159Z,1.17
2022-08-03T10:04:05.702Z,1.10
2022-08-03T10:05:09.619Z,1.40
2022-08-03T10:06:18.292Z,1.20
2022-08-03T10:07:21.276Z,1.23
2022-08-03T10:08:23.198Z,1.23
2022-08-03T10:09:24.628Z,1.10
2022-08-03T10:10:29.896Z,1.30
2022-08-03T10:11:40.877Z,1.23
2022-08-03T10:12:44.393Z,1.30
2022-08-03T10:13:47.550Z,1.33
2022-08-03T10:14:49.010Z,1.30
2022-08-03T10:16:21.865Z,1.17
2022-08-03T10:17:12.783Z,1.30
2022-08-03T10:18:15.749Z,1.38
2022-08-03T10:19:17.535Z,1.27
2022-08-03T10:20:19.205Z,1.17
2022-08-03T10:21:21.337Z,1.45
2022-08-03T10:22:23.994Z,1.30
2022-08-03T10:23:26.179Z,1.20
2022-08-03T10:24:30.079Z,1.10
2022-08-03T10:25:34.922Z,1.30
2022-08-03T10:26:38.855Z,1.20
2022-08-03T10:27:53.085Z,1.30
2022-08-03T10:28:59.283Z,1.30
2022-08-03T10:30:02.195Z,1.20
2022-08-03T10:31:05.306Z,1.30
2022-08-03T10:32:13.667Z,1.17
2022-08-03T10:33:49.582Z,1.40
2022-08-03T10:34:44.379Z,1.20
2022-08-03T10:35:47.461Z,1.27
2022-08-03T10:36:49.733Z,1.20
2022-08-03T10:37:56.403Z,1.20
2022-08-03T10:39:00.781Z,2.17
2022-08-03T10:40:03.333Z,2.28
2022-08-03T10:41:06.404Z,1.42
2022-08-03T10:42:18.769Z,1.27
2022-08-03T10:43:25.542Z,1.05
2022-08-03T10:44:33.164Z,1.25
2022-08-03T10:45:39.069Z,1.20
2022-08-03T10:46:45.013Z,1.10
2022-08-03T10:47:48.268Z,1.35
2022-08-03T10:48:52.070Z,1.20
2022-08-03T10:49:53.673Z,1.35
2022-08-03T10:50:55.598Z,1.30
2022-08-03T10:51:57.264Z,1.35
2022-08-03T10:53:02.045Z,1.50
2022-08-03T10:54:05.564Z,1.33
2022-08-03T10:55:31.914Z,1.30
2022-08-03T10:56:48.034Z,1.48
2022-08-03T10:57:58.295Z,1.40
2022-08-03T10:59:00.163Z,1.23
2022-08-03T11:00:06.508Z,1.67
2022-08-03T11:01:09.606Z,1.60
2022-08-03T11:02:11.546Z,1.50
2022-08-03T11:03:13.881Z,1.70
2022-08-03T11:04:18.264Z,1.58
2022-08-03T11:05:26.992Z,1.45
2022-08-03T11:06:28.767Z,1.58
2022-08-03T11:07:39.184Z,1.50
2022-08-03T11:08:41.017Z,1.40
2022-08-03T11:09:43.484Z,1.30
2022-08-03T11:10:45.177Z,1.50
2022-08-03T11:11:48.443Z,1.40
2022-08-03T11:12:50.153Z,1.52
2022-08-03T11:14:00.735Z,1.50
2022-08-03T11:15:05.498Z,1.73
2022-08-03T11:16:22.030Z,1.55
2022-08-03T11:17:24.074Z,1.40
2022-08-03T11:18:26.979Z,1.65
2022-08-03T11:19:57.845Z,1.45
2022-08-03T11:21:00.539Z,1.60
2022-08-03T11:22:02.096Z,1.45
2022-08-03T11:23:03.653Z,1.65
2022-08-03T11:24:06.761Z,1.40
2022-08-03T11:25:08.712Z,1.45
2022-08-03T11:26:33.553Z,1.65
2022-08-03T11:27:36.763Z,1.40
2022-08-03T11:28:40.035Z,1.50
2022-08-03T11:29:55.182Z,1.42
2022-08-03T11:30:56.704Z,1.35
2022-08-03T11:31:58.499Z,1.23
2022-08-03T11:33:00.387Z,1.63
2022-08-03T11:34:05.514Z,2.10
2022-08-03T11:35:09.145Z,1.50
2022-08-03T11:36:10.612Z,1.65
2022-08-03T11:37:22.639Z,1.40
2022-08-03T11:38:24.571Z,1.30
2022-08-03T11:39:38.146Z,1.50
2022-08-03T11:40:42.929Z,1.40
2022-08-03T11:41:45.112Z,1.60
2022-08-03T11:42:46.926Z,1.40
2022-08-03T11:43:48.356Z,1.38
2022-08-03T11:44:50.544Z,1.38
2022-08-03T11:45:58.575Z,1.50
2022-08-03T11:47:00.697Z,1.73
2022-08-03T11:48:14.313Z,1.48
2022-08-03T11:49:20.908Z,1.55
2022-08-03T11:50:24.192Z,1.40
2022-08-03T11:51:27.609Z,1.35
2022-08-03T11:52:35.398Z,1.40
2022-08-03T11:53:42.201Z,1.40
2022-08-03T11:54:43.866Z,1.20
2022-08-03T11:55:47.453Z,1.52
2022-08-03T11:56:50.222Z,1.70
2022-08-03T11:59:10.743Z,1.38
2022-08-03T12:00:25.979Z,1.58
2022-08-03T12:01:27.631Z,1.25
2022-08-03T12:02:29.106Z,1.30
2022-08-03T12:03:33.130Z,1.23
2022-08-03T12:04:49.757Z,1.42
2022-08-03T12:05:54.813Z,1.30
2022-08-03T12:06:59.923Z,1.40
2022-08-03T12:08:03.495Z,1.13
2022-08-03T12:09:15.571Z,1.42
2022-08-03T12:10:17.257Z,1.60
2022-08-03T12:11:18.720Z,1.30
2022-08-03T12:12:20.226Z,1.40
2022-08-03T12:14:44.636Z,1.42
2022-08-03T12:14:52.127Z,1.55
2022-08-03T12:15:55.470Z,1.38
2022-08-03T12:16:57.012Z,1.30
2022-08-03T12:17:58.527Z,1.50
2022-08-03T12:19:01.380Z,1.23
2022-08-03T12:20:05.343Z,1.23
2022-08-03T12:21:09.870Z,1.42
2022-08-03T12:22:11.370Z,1.33
2022-08-03T12:23:13.137Z,1.20
2022-08-03T12:24:14.837Z,1.20
2022-08-03T12:25:38.581Z,1.00
2022-08-03T12:26:44.764Z,1.08
2022-08-03T12:28:36.972Z,1.30
2022-08-03T12:29:31.250Z,1.10
2022-08-03T12:30:32.962Z,1.42
2022-08-03T12:31:36.044Z,1.25
2022-08-03T12:32:37.563Z,1.25
2022-08-03T12:33:56.261Z,1.23
2022-08-03T12:35:00.036Z,1.40
2022-08-03T12:36:06.234Z,1.20
2022-08-03T12:37:28.653Z,1.20
2022-08-03T12:38:30.772Z,1.40
2022-08-03T12:39:32.284Z,1.30
2022-08-03T12:40:33.892Z,1.33
2022-08-03T12:41:37.295Z,1.40
2022-08-03T12:42:39.687Z,1.50
2022-08-03T12:43:48.133Z,1.27
2022-08-03T12:44:49.638Z,1.40
2022-08-03T12:46:08.429Z,1.33
2022-08-03T12:47:09.875Z,1.77
2022-08-03T12:48:12.392Z,1.40
2022-08-03T12:49:15.382Z,1.38
2022-08-03T12:50:24.345Z,1.20
2022-08-03T12:51:26.202Z,1.23
2022-08-03T12:52:43.482Z,1.50
2022-08-03T12:53:52.088Z,1.30
2022-08-03T12:54:57.950Z,1.40
2022-08-03T12:56:05.874Z,1.60
2022-08-03T12:57:09.450Z,1.20
2022-08-03T12:58:29.926Z,1.30
2022-08-03T12:59:35.170Z,1.23
2022-08-03T13:00:37.425Z,1.60
2022-08-03T13:01:54.800Z,1.40
2022-08-03T13:03:38.427Z,1.40
2022-08-03T13:04:27.242Z,1.50
2022-08-03T13:05:31.540Z,1.30
2022-08-03T13:06:33.030Z,1.48
2022-08-03T13:07:41.725Z,1.33
2022-08-03T13:08:48.122Z,1.50
2022-08-03T13:09:51.351Z,1.30
2022-08-03T13:10:53.827Z,1.30
2022-08-03T13:12:06.081Z,1.30
2022-08-03T13:13:09.770Z,1.60
2022-08-03T13:14:15.334Z,1.33
2022-08-03T13:15:20.986Z,1.38
2022-08-03T13:16:23.012Z,4.38
2022-08-03T13:17:24.894Z,3.70
2022-08-03T13:18:26.390Z,1.40
2022-08-03T13:19:28.281Z,1.30
2022-08-03T13:20:29.849Z,1.40
2022-08-03T13:21:31.317Z,1.40
2022-08-03T13:22:32.847Z,1.40
2022-08-03T13:23:35.705Z,1.35
2022-08-03T13:24:37.251Z,1.30
2022-08-03T13:25:55.087Z,1.30
2022-08-03T13:26:57.614Z,1.10
2022-08-03T13:28:04.478Z,1.40
2022-08-03T13:29:07.394Z,1.20
2022-08-03T13:30:09.809Z,1.30
2022-08-03T13:31:11.284Z,1.40
2022-08-03T13:32:12.841Z,1.40
2022-08-03T13:33:14.344Z,1.40
2022-08-03T13:34:18.711Z,1.17
2022-08-03T13:35:24.133Z,1.38
2022-08-03T13:36:25.590Z,1.15
2022-08-03T13:37:31.652Z,1.20
2022-08-03T13:38:33.164Z,1.30
2022-08-03T13:39:57.933Z,1.40
2022-08-03T13:40:58.189Z,1.30
2022-08-03T13:41:59.653Z,1.20
2022-08-03T13:43:01.111Z,1.13
2022-08-03T13:44:26.678Z,1.23
2022-08-03T13:47:27.178Z,1.50
2022-08-03T13:48:36.219Z,1.42
2022-08-03T13:49:38.955Z,1.40
2022-08-03T13:50:43.067Z,1.50
2022-08-03T13:51:44.805Z,1.02
2022-08-03T13:52:46.345Z,1.30
2022-08-03T13:53:47.791Z,1.27
2022-08-03T13:54:50.547Z,1.58
2022-08-03T13:55:52.041Z,1.20
2022-08-03T13:56:56.668Z,1.30
2022-08-03T13:58:06.234Z,1.30
2022-08-03T13:59:08.581Z,1.40
2022-08-03T14:00:11.184Z,1.27
2022-08-03T14:01:12.797Z,1.10
2022-08-03T14:02:14.255Z,1.40
2022-08-03T14:03:15.738Z,1.30
2022-08-03T14:04:21.828Z,1.30
2022-08-03T14:05:23.951Z,1.17
2022-08-03T14:06:25.403Z,1.10
2022-08-03T14:07:26.974Z,1.27
2022-08-03T14:08:28.683Z,1.23
2022-08-03T14:09:30.154Z,1.30
2022-08-03T14:10:33.737Z,1.30
2022-08-03T14:12:07.275Z,1.10
2022-08-03T14:13:57.941Z,1.27
2022-08-03T14:15:01.600Z,1.20
2022-08-03T14:16:03.807Z,1.40
2022-08-03T14:17:05.420Z,1.30
2022-08-03T14:18:12.654Z,1.27
2022-08-03T14:19:17.382Z,1.30
2022-08-03T14:20:38.849Z,1.20
2022-08-03T14:21:49.337Z,1.23
2022-08-03T14:23:07.737Z,1.08
2022-08-03T14:24:09.171Z,1.10
2022-08-03T14:25:10.637Z,1.20
2022-08-03T14:26:16.597Z,1.10
2022-08-03T14:27:18.169Z,1.23
2022-08-03T14:28:21.459Z,1.33
2022-08-03T14:29:22.893Z,1.20
2022-08-03T14:30:24.348Z,1.33
2022-08-03T14:32:11.751Z,1.35
2022-08-03T14:33:48.509Z,1.30
2022-08-03T14:34:49.967Z,1.60
2022-08-03T14:35:52.011Z,1.30
2022-08-03T14:36:53.447Z,1.35
2022-08-03T14:37:54.927Z,1.17
2022-08-03T14:39:01.057Z,1.10
2022-08-03T14:40:04.685Z,1.30
2022-08-03T14:41:06.240Z,1.27
2022-08-03T14:42:15.032Z,1.30